sensor_id;sensor_type;location;lat;lon;timestamp;P1;durP1;ratioP1;P2;durP2;ratioP2
7334;SDS011;3708;42.632;23.378;2023-05-23T00:02:12;6.27;;;4.60;;
7334;SDS011;3708;42.632;23.378;2023-05-23T00:04:39;6.73;;;4.60;;
7334;SDS011;3708;42.632;23.378;2023-05-23T00:07:08;6.53;;;3.73;;
7334;SDS011;3708;42.632;23.378;2023-05-23T00:09:35;8.07;;;4.50;;
7334;SDS011;3708;42.632;23.378;2023-05-23T00:12:02;7.27;;;3.83;;
7334;SDS011;3708;42.632;23.378;2023-05-23T00:14:29;5.83;;;3.57;;
7334;SDS011;3708;42.632;23.378;2023-05-23T00:16:58;4.53;;;4.07;;
7334;SDS011;3708;42.632;23.378;2023-05-23T00:19:27;5.13;;;4.60;;
7334;SDS011;3708;42.632;23.378;2023-05-23T00:21:53;6.47;;;4.10;;
7334;SDS011;3708;42.632;23.378;2023-05-23T00:24:22;6.40;;;4.40;;
7334;SDS011;3708;42.632;23.378;2023-05-23T00:26:49;4.80;;;4.30;;
7334;SDS011;3708;42.632;23.378;2023-05-23T00:29:16;5.47;;;4.60;;
7334;SDS011;3708;42.632;23.378;2023-05-23T00:31:43;6.07;;;4.43;;
7334;SDS011;3708;42.632;23.378;2023-05-23T00:34:11;8.47;;;4.80;;
7334;SDS011;3708;42.632;23.378;2023-05-23T00:36:39;5.83;;;4.50;;
7334;SDS011;3708;42.632;23.378;2023-05-23T00:39:07;5.77;;;4.97;;
7334;SDS011;3708;42.632;23.378;2023-05-23T00:41:43;5.50;;;3.83;;
7334;SDS011;3708;42.632;23.378;2023-05-23T00:44:10;5.73;;;4.60;;
7334;SDS011;3708;42.632;23.378;2023-05-23T00:46:37;6.57;;;4.20;;
7334;SDS011;3708;42.632;23.378;2023-05-23T00:49:04;6.47;;;4.10;;
7334;SDS011;3708;42.632;23.378;2023-05-23T00:51:31;7.33;;;4.43;;
7334;SDS011;3708;42.632;23.378;2023-05-23T00:54:00;7.70;;;4.17;;
7334;SDS011;3708;42.632;23.378;2023-05-23T00:56:27;5.63;;;4.10;;
7334;SDS011;3708;42.632;23.378;2023-05-23T00:58:55;6.17;;;4.67;;
7334;SDS011;3708;42.632;23.378;2023-05-23T01:01:22;6.53;;;4.67;;
7334;SDS011;3708;42.632;23.378;2023-05-23T01:03:49;6.50;;;3.97;;
7334;SDS011;3708;42.632;23.378;2023-05-23T01:06:16;10.03;;;4.13;;
7334;SDS011;3708;42.632;23.378;2023-05-23T01:08:43;5.60;;;4.20;;
7334;SDS011;3708;42.632;23.378;2023-05-23T01:11:13;5.47;;;4.10;;
7334;SDS011;3708;42.632;23.378;2023-05-23T01:13:50;7.00;;;4.30;;
7334;SDS011;3708;42.632;23.378;2023-05-23T01:16:27;4.77;;;4.10;;
7334;SDS011;3708;42.632;23.378;2023-05-23T01:19:03;6.63;;;4.13;;
7334;SDS011;3708;42.632;23.378;2023-05-23T01:21:43;5.77;;;3.63;;
7334;SDS011;3708;42.632;23.378;2023-05-23T01:24:29;5.47;;;3.77;;
7334;SDS011;3708;42.632;23.378;2023-05-23T01:27:10;6.23;;;3.63;;
7334;SDS011;3708;42.632;23.378;2023-05-23T01:29:50;4.87;;;3.60;;
7334;SDS011;3708;42.632;23.378;2023-05-23T01:32:22;4.23;;;3.80;;
7334;SDS011;3708;42.632;23.378;2023-05-23T01:34:51;5.97;;;3.80;;
7334;SDS011;3708;42.632;23.378;2023-05-23T01:37:18;4.53;;;3.80;;
7334;SDS011;3708;42.632;23.378;2023-05-23T01:39:45;6.77;;;4.20;;
7334;SDS011;3708;42.632;23.378;2023-05-23T01:42:13;6.20;;;4.30;;
7334;SDS011;3708;42.632;23.378;2023-05-23T01:44:40;7.47;;;4.40;;
7334;SDS011;3708;42.632;23.378;2023-05-23T01:47:09;5.87;;;3.70;;
7334;SDS011;3708;42.632;23.378;2023-05-23T01:49:36;7.97;;;4.80;;
7334;SDS011;3708;42.632;23.378;2023-05-23T01:52:05;6.17;;;4.30;;
7334;SDS011;3708;42.632;23.378;2023-05-23T01:54:35;5.83;;;3.73;;
7334;SDS011;3708;42.632;23.378;2023-05-23T01:57:04;6.23;;;4.43;;
7334;SDS011;3708;42.632;23.378;2023-05-23T01:59:31;5.43;;;3.90;;
7334;SDS011;3708;42.632;23.378;2023-05-23T02:01:58;4.90;;;4.03;;
7334;SDS011;3708;42.632;23.378;2023-05-23T02:04:45;4.57;;;3.87;;
7334;SDS011;3708;42.632;23.378;2023-05-23T02:07:12;6.13;;;4.70;;
7334;SDS011;3708;42.632;23.378;2023-05-23T02:09:38;5.80;;;4.10;;
7334;SDS011;3708;42.632;23.378;2023-05-23T02:12:05;12.63;;;4.17;;
7334;SDS011;3708;42.632;23.378;2023-05-23T02:14:33;5.37;;;4.20;;
7334;SDS011;3708;42.632;23.378;2023-05-23T02:17:01;5.47;;;4.10;;
7334;SDS011;3708;42.632;23.378;2023-05-23T02:19:28;11.23;;;4.40;;
7334;SDS011;3708;42.632;23.378;2023-05-23T02:21:56;5.77;;;4.20;;
7334;SDS011;3708;42.632;23.378;2023-05-23T02:24:23;7.90;;;4.43;;
7334;SDS011;3708;42.632;23.378;2023-05-23T02:26:50;5.30;;;4.03;;
7334;SDS011;3708;42.632;23.378;2023-05-23T02:29:17;5.60;;;4.03;;
7334;SDS011;3708;42.632;23.378;2023-05-23T02:31:44;4.77;;;3.83;;
7334;SDS011;3708;42.632;23.378;2023-05-23T02:34:11;4.10;;;3.70;;
7334;SDS011;3708;42.632;23.378;2023-05-23T02:36:37;6.03;;;3.70;;
7334;SDS011;3708;42.632;23.378;2023-05-23T02:39:06;4.20;;;3.40;;
7334;SDS011;3708;42.632;23.378;2023-05-23T02:41:33;7.57;;;3.40;;
7334;SDS011;3708;42.632;23.378;2023-05-23T02:44:01;5.50;;;3.90;;
7334;SDS011;3708;42.632;23.378;2023-05-23T02:46:28;5.97;;;3.60;;
7334;SDS011;3708;42.632;23.378;2023-05-23T02:48:55;4.20;;;3.33;;
7334;SDS011;3708;42.632;23.378;2023-05-23T02:51:21;4.40;;;3.60;;
7334;SDS011;3708;42.632;23.378;2023-05-23T02:53:48;4.10;;;3.70;;
7334;SDS011;3708;42.632;23.378;2023-05-23T02:56:17;6.63;;;3.60;;
7334;SDS011;3708;42.632;23.378;2023-05-23T02:58:44;3.87;;;3.47;;
7334;SDS011;3708;42.632;23.378;2023-05-23T03:01:11;5.07;;;3.90;;
7334;SDS011;3708;42.632;23.378;2023-05-23T03:03:37;6.03;;;3.67;;
7334;SDS011;3708;42.632;23.378;2023-05-23T03:06:05;8.60;;;4.10;;
7334;SDS011;3708;42.632;23.378;2023-05-23T03:08:34;4.77;;;3.57;;
7334;SDS011;3708;42.632;23.378;2023-05-23T03:11:01;3.50;;;2.70;;
7334;SDS011;3708;42.632;23.378;2023-05-23T03:13:29;4.17;;;3.10;;
7334;SDS011;3708;42.632;23.378;2023-05-23T03:15:56;5.07;;;3.60;;
7334;SDS011;3708;42.632;23.378;2023-05-23T03:18:23;3.70;;;3.27;;
7334;SDS011;3708;42.632;23.378;2023-05-23T03:20:50;3.87;;;3.30;;
7334;SDS011;3708;42.632;23.378;2023-05-23T03:23:17;4.83;;;3.03;;
7334;SDS011;3708;42.632;23.378;2023-05-23T03:25:44;3.33;;;3.00;;
7334;SDS011;3708;42.632;23.378;2023-05-23T03:28:11;3.73;;;2.90;;
7334;SDS011;3708;42.632;23.378;2023-05-23T03:30:39;8.33;;;3.00;;
7334;SDS011;3708;42.632;23.378;2023-05-23T03:33:06;3.87;;;2.93;;
7334;SDS011;3708;42.632;23.378;2023-05-23T03:35:33;3.77;;;2.83;;
7334;SDS011;3708;42.632;23.378;2023-05-23T03:38:00;5.17;;;3.10;;
7334;SDS011;3708;42.632;23.378;2023-05-23T03:40:27;4.17;;;3.20;;
7334;SDS011;3708;42.632;23.378;2023-05-23T03:43:00;6.60;;;3.77;;
7334;SDS011;3708;42.632;23.378;2023-05-23T03:45:28;5.67;;;3.10;;
7334;SDS011;3708;42.632;23.378;2023-05-23T03:47:57;3.27;;;2.93;;
7334;SDS011;3708;42.632;23.378;2023-05-23T03:50:24;6.00;;;3.23;;
7334;SDS011;3708;42.632;23.378;2023-05-23T03:52:51;4.63;;;3.10;;
7334;SDS011;3708;42.632;23.378;2023-05-23T03:55:19;3.73;;;2.90;;
7334;SDS011;3708;42.632;23.378;2023-05-23T03:57:48;3.13;;;2.80;;
7334;SDS011;3708;42.632;23.378;2023-05-23T04:00:15;4.70;;;3.07;;
7334;SDS011;3708;42.632;23.378;2023-05-23T04:02:42;4.17;;;3.07;;
7334;SDS011;3708;42.632;23.378;2023-05-23T04:05:11;3.53;;;2.60;;
7334;SDS011;3708;42.632;23.378;2023-05-23T04:07:38;5.60;;;3.80;;
7334;SDS011;3708;42.632;23.378;2023-05-23T04:10:06;5.43;;;2.90;;
7334;SDS011;3708;42.632;23.378;2023-05-23T04:12:34;3.67;;;3.10;;
7334;SDS011;3708;42.632;23.378;2023-05-23T04:15:00;3.50;;;3.10;;
7334;SDS011;3708;42.632;23.378;2023-05-23T04:17:28;3.67;;;2.77;;
7334;SDS011;3708;42.632;23.378;2023-05-23T04:19:55;4.00;;;3.60;;
7334;SDS011;3708;42.632;23.378;2023-05-23T04:22:23;4.43;;;4.03;;
7334;SDS011;3708;42.632;23.378;2023-05-23T04:24:50;4.40;;;4.00;;
7334;SDS011;3708;42.632;23.378;2023-05-23T04:27:17;5.73;;;4.23;;
7334;SDS011;3708;42.632;23.378;2023-05-23T04:29:44;7.13;;;4.70;;
7334;SDS011;3708;42.632;23.378;2023-05-23T04:32:10;4.47;;;4.07;;
7334;SDS011;3708;42.632;23.378;2023-05-23T04:34:38;4.37;;;3.97;;
7334;SDS011;3708;42.632;23.378;2023-05-23T04:37:06;5.10;;;4.60;;
7334;SDS011;3708;42.632;23.378;2023-05-23T04:39:35;4.97;;;3.80;;
7334;SDS011;3708;42.632;23.378;2023-05-23T04:42:02;6.53;;;4.00;;
7334;SDS011;3708;42.632;23.378;2023-05-23T04:44:31;5.00;;;4.47;;
7334;SDS011;3708;42.632;23.378;2023-05-23T04:46:58;4.97;;;4.30;;
7334;SDS011;3708;42.632;23.378;2023-05-23T04:49:27;7.07;;;4.20;;
7334;SDS011;3708;42.632;23.378;2023-05-23T04:51:53;5.70;;;5.00;;
7334;SDS011;3708;42.632;23.378;2023-05-23T04:54:20;5.03;;;4.53;;
7334;SDS011;3708;42.632;23.378;2023-05-23T04:56:48;7.37;;;5.70;;
7334;SDS011;3708;42.632;23.378;2023-05-23T04:59:15;9.40;;;5.77;;
7334;SDS011;3708;42.632;23.378;2023-05-23T05:01:42;8.73;;;6.57;;
7334;SDS011;3708;42.632;23.378;2023-05-23T05:04:09;6.77;;;5.63;;
7334;SDS011;3708;42.632;23.378;2023-05-23T05:06:36;8.23;;;5.37;;
7334;SDS011;3708;42.632;23.378;2023-05-23T05:09:02;6.57;;;5.13;;
7334;SDS011;3708;42.632;23.378;2023-05-23T05:11:29;9.37;;;6.47;;
7334;SDS011;3708;42.632;23.378;2023-05-23T05:13:57;11.93;;;6.30;;
7334;SDS011;3708;42.632;23.378;2023-05-23T05:16:24;11.10;;;6.77;;
7334;SDS011;3708;42.632;23.378;2023-05-23T05:18:51;10.83;;;7.30;;
7334;SDS011;3708;42.632;23.378;2023-05-23T05:21:18;7.93;;;6.17;;
7334;SDS011;3708;42.632;23.378;2023-05-23T05:23:44;10.13;;;7.03;;
7334;SDS011;3708;42.632;23.378;2023-05-23T05:26:11;7.97;;;6.73;;
7334;SDS011;3708;42.632;23.378;2023-05-23T05:28:38;8.43;;;6.87;;
7334;SDS011;3708;42.632;23.378;2023-05-23T05:31:06;8.67;;;7.07;;
7334;SDS011;3708;42.632;23.378;2023-05-23T05:33:34;12.27;;;6.80;;
7334;SDS011;3708;42.632;23.378;2023-05-23T05:36:01;12.93;;;6.70;;
7334;SDS011;3708;42.632;23.378;2023-05-23T05:38:28;8.47;;;6.17;;
7334;SDS011;3708;42.632;23.378;2023-05-23T05:40:55;12.10;;;7.33;;
7334;SDS011;3708;42.632;23.378;2023-05-23T05:43:22;10.30;;;7.83;;
7334;SDS011;3708;42.632;23.378;2023-05-23T05:45:49;12.13;;;7.23;;
7334;SDS011;3708;42.632;23.378;2023-05-23T05:48:17;11.37;;;6.73;;
7334;SDS011;3708;42.632;23.378;2023-05-23T05:50:44;9.07;;;7.00;;
7334;SDS011;3708;42.632;23.378;2023-05-23T05:53:11;8.57;;;6.57;;
7334;SDS011;3708;42.632;23.378;2023-05-23T05:55:39;10.73;;;9.23;;
7334;SDS011;3708;42.632;23.378;2023-05-23T05:58:05;14.10;;;10.83;;
7334;SDS011;3708;42.632;23.378;2023-05-23T06:00:32;19.03;;;10.23;;
7334;SDS011;3708;42.632;23.378;2023-05-23T06:03:06;14.77;;;11.53;;
7334;SDS011;3708;42.632;23.378;2023-05-23T06:05:34;15.87;;;11.73;;
7334;SDS011;3708;42.632;23.378;2023-05-23T06:08:03;19.40;;;11.77;;
7334;SDS011;3708;42.632;23.378;2023-05-23T06:10:33;13.63;;;11.27;;
7334;SDS011;3708;42.632;23.378;2023-05-23T06:13:02;12.00;;;10.37;;
7334;SDS011;3708;42.632;23.378;2023-05-23T06:15:29;14.60;;;10.57;;
7334;SDS011;3708;42.632;23.378;2023-05-23T06:17:56;15.33;;;11.70;;
7334;SDS011;3708;42.632;23.378;2023-05-23T06:20:22;14.23;;;11.57;;
7334;SDS011;3708;42.632;23.378;2023-05-23T06:22:51;18.93;;;11.50;;
7334;SDS011;3708;42.632;23.378;2023-05-23T06:25:17;15.37;;;10.93;;
7334;SDS011;3708;42.632;23.378;2023-05-23T06:27:44;17.30;;;11.67;;
7334;SDS011;3708;42.632;23.378;2023-05-23T06:30:11;16.63;;;11.27;;
7334;SDS011;3708;42.632;23.378;2023-05-23T06:32:41;29.03;;;12.97;;
7334;SDS011;3708;42.632;23.378;2023-05-23T06:35:08;20.40;;;13.27;;
7334;SDS011;3708;42.632;23.378;2023-05-23T06:37:35;18.10;;;11.63;;
7334;SDS011;3708;42.632;23.378;2023-05-23T06:40:05;18.67;;;11.63;;
7334;SDS011;3708;42.632;23.378;2023-05-23T06:42:33;21.03;;;11.57;;
7334;SDS011;3708;42.632;23.378;2023-05-23T06:45:00;16.17;;;10.87;;
7334;SDS011;3708;42.632;23.378;2023-05-23T06:47:27;17.27;;;12.10;;
7334;SDS011;3708;42.632;23.378;2023-05-23T06:49:54;17.93;;;11.83;;
7334;SDS011;3708;42.632;23.378;2023-05-23T06:52:20;21.13;;;12.27;;
7334;SDS011;3708;42.632;23.378;2023-05-23T06:54:47;18.97;;;13.20;;
7334;SDS011;3708;42.632;23.378;2023-05-23T06:57:15;26.67;;;12.80;;
7334;SDS011;3708;42.632;23.378;2023-05-23T06:59:42;17.57;;;11.67;;
7334;SDS011;3708;42.632;23.378;2023-05-23T07:02:09;16.27;;;11.63;;
7334;SDS011;3708;42.632;23.378;2023-05-23T07:04:39;21.03;;;11.90;;
7334;SDS011;3708;42.632;23.378;2023-05-23T07:07:06;16.17;;;11.47;;
7334;SDS011;3708;42.632;23.378;2023-05-23T07:09:33;23.43;;;12.03;;
7334;SDS011;3708;42.632;23.378;2023-05-23T07:12:00;19.43;;;11.63;;
7334;SDS011;3708;42.632;23.378;2023-05-23T07:14:28;21.30;;;12.20;;
7334;SDS011;3708;42.632;23.378;2023-05-23T07:16:55;17.60;;;10.77;;
7334;SDS011;3708;42.632;23.378;2023-05-23T07:19:22;17.50;;;11.37;;
7334;SDS011;3708;42.632;23.378;2023-05-23T07:21:48;16.97;;;11.47;;
7334;SDS011;3708;42.632;23.378;2023-05-23T07:24:15;15.17;;;11.33;;
7334;SDS011;3708;42.632;23.378;2023-05-23T07:26:42;14.43;;;10.07;;
7334;SDS011;3708;42.632;23.378;2023-05-23T07:29:09;19.63;;;11.27;;
7334;SDS011;3708;42.632;23.378;2023-05-23T07:31:37;19.13;;;12.10;;
7334;SDS011;3708;42.632;23.378;2023-05-23T07:34:04;23.43;;;12.00;;
7334;SDS011;3708;42.632;23.378;2023-05-23T07:36:30;19.13;;;11.50;;
7334;SDS011;3708;42.632;23.378;2023-05-23T07:38:59;16.60;;;10.73;;
7334;SDS011;3708;42.632;23.378;2023-05-23T07:41:26;14.80;;;10.07;;
7334;SDS011;3708;42.632;23.378;2023-05-23T07:43:53;13.73;;;9.90;;
7334;SDS011;3708;42.632;23.378;2023-05-23T07:46:20;15.83;;;10.27;;
7334;SDS011;3708;42.632;23.378;2023-05-23T07:48:48;13.93;;;9.53;;
7334;SDS011;3708;42.632;23.378;2023-05-23T07:51:15;15.67;;;9.33;;
7334;SDS011;3708;42.632;23.378;2023-05-23T07:53:44;16.33;;;9.50;;
7334;SDS011;3708;42.632;23.378;2023-05-23T07:56:11;14.77;;;9.07;;
7334;SDS011;3708;42.632;23.378;2023-05-23T07:58:38;9.47;;;7.93;;
7334;SDS011;3708;42.632;23.378;2023-05-23T08:01:04;11.47;;;8.20;;
7334;SDS011;3708;42.632;23.378;2023-05-23T08:03:32;11.87;;;8.73;;
7334;SDS011;3708;42.632;23.378;2023-05-23T08:06:00;10.47;;;8.70;;
7334;SDS011;3708;42.632;23.378;2023-05-23T08:08:26;13.57;;;8.20;;
7334;SDS011;3708;42.632;23.378;2023-05-23T08:10:53;9.33;;;7.10;;
7334;SDS011;3708;42.632;23.378;2023-05-23T08:13:20;9.27;;;7.53;;
7334;SDS011;3708;42.632;23.378;2023-05-23T08:15:47;12.90;;;8.30;;
7334;SDS011;3708;42.632;23.378;2023-05-23T08:18:14;8.70;;;7.10;;
7334;SDS011;3708;42.632;23.378;2023-05-23T08:20:42;11.30;;;7.83;;
7334;SDS011;3708;42.632;23.378;2023-05-23T08:23:10;13.37;;;8.33;;
7334;SDS011;3708;42.632;23.378;2023-05-23T08:25:38;8.70;;;6.63;;
7334;SDS011;3708;42.632;23.378;2023-05-23T08:28:05;9.87;;;7.40;;
7334;SDS011;3708;42.632;23.378;2023-05-23T08:30:32;11.00;;;6.87;;
7334;SDS011;3708;42.632;23.378;2023-05-23T08:32:59;10.70;;;7.47;;
7334;SDS011;3708;42.632;23.378;2023-05-23T08:35:28;12.20;;;7.63;;
7334;SDS011;3708;42.632;23.378;2023-05-23T08:37:59;12.03;;;7.60;;
7334;SDS011;3708;42.632;23.378;2023-05-23T08:40:27;12.73;;;7.70;;
7334;SDS011;3708;42.632;23.378;2023-05-23T08:42:59;13.77;;;7.73;;
7334;SDS011;3708;42.632;23.378;2023-05-23T08:45:27;15.13;;;7.67;;
7334;SDS011;3708;42.632;23.378;2023-05-23T08:47:54;14.50;;;8.03;;
7334;SDS011;3708;42.632;23.378;2023-05-23T08:50:25;9.53;;;7.07;;
7334;SDS011;3708;42.632;23.378;2023-05-23T08:52:55;9.77;;;7.20;;
7334;SDS011;3708;42.632;23.378;2023-05-23T08:55:23;8.88;;;7.05;;
7334;SDS011;3708;42.632;23.378;2023-05-23T08:57:53;9.53;;;6.60;;
7334;SDS011;3708;42.632;23.378;2023-05-23T09:00:20;9.13;;;7.20;;
7334;SDS011;3708;42.632;23.378;2023-05-23T09:02:47;7.80;;;6.85;;
7334;SDS011;3708;42.632;23.378;2023-05-23T09:05:14;9.55;;;7.35;;
7334;SDS011;3708;42.632;23.378;2023-05-23T09:07:41;7.82;;;7.03;;
7334;SDS011;3708;42.632;23.378;2023-05-23T09:10:09;10.75;;;5.82;;
7334;SDS011;3708;42.632;23.378;2023-05-23T09:12:36;6.75;;;5.10;;
7334;SDS011;3708;42.632;23.378;2023-05-23T09:15:05;7.43;;;5.43;;
7334;SDS011;3708;42.632;23.378;2023-05-23T09:17:33;9.30;;;5.47;;
7334;SDS011;3708;42.632;23.378;2023-05-23T09:20:02;6.43;;;4.82;;
7334;SDS011;3708;42.632;23.378;2023-05-23T09:22:30;9.30;;;5.00;;
7334;SDS011;3708;42.632;23.378;2023-05-23T09:24:57;6.28;;;4.05;;
7334;SDS011;3708;42.632;23.378;2023-05-23T09:27:24;4.97;;;4.13;;
7334;SDS011;3708;42.632;23.378;2023-05-23T09:29:50;5.68;;;3.97;;
7334;SDS011;3708;42.632;23.378;2023-05-23T09:32:19;10.90;;;3.97;;
7334;SDS011;3708;42.632;23.378;2023-05-23T09:34:53;8.05;;;4.38;;
7334;SDS011;3708;42.632;23.378;2023-05-23T09:37:21;4.93;;;3.88;;
7334;SDS011;3708;42.632;23.378;2023-05-23T09:39:48;6.22;;;4.00;;
7334;SDS011;3708;42.632;23.378;2023-05-23T09:42:19;3.67;;;3.28;;
7334;SDS011;3708;42.632;23.378;2023-05-23T09:44:47;6.53;;;3.92;;
7334;SDS011;3708;42.632;23.378;2023-05-23T09:47:14;5.93;;;3.60;;
7334;SDS011;3708;42.632;23.378;2023-05-23T09:49:44;5.78;;;3.08;;
7334;SDS011;3708;42.632;23.378;2023-05-23T09:52:11;4.50;;;3.47;;
7334;SDS011;3708;42.632;23.378;2023-05-23T09:54:38;4.05;;;3.10;;
7334;SDS011;3708;42.632;23.378;2023-05-23T09:57:06;5.55;;;3.67;;
7334;SDS011;3708;42.632;23.378;2023-05-23T09:59:38;9.15;;;3.58;;
7334;SDS011;3708;42.632;23.378;2023-05-23T10:02:06;6.72;;;3.50;;
7334;SDS011;3708;42.632;23.378;2023-05-23T10:04:37;6.50;;;3.15;;
7334;SDS011;3708;42.632;23.378;2023-05-23T10:07:09;7.70;;;3.38;;
7334;SDS011;3708;42.632;23.378;2023-05-23T10:09:41;5.57;;;3.40;;
7334;SDS011;3708;42.632;23.378;2023-05-23T10:15:08;5.35;;;3.10;;
7334;SDS011;3708;42.632;23.378;2023-05-23T10:17:36;4.45;;;3.10;;
7334;SDS011;3708;42.632;23.378;2023-05-23T10:20:10;5.25;;;3.42;;
7334;SDS011;3708;42.632;23.378;2023-05-23T10:22:41;5.63;;;3.25;;
7334;SDS011;3708;42.632;23.378;2023-05-23T10:25:08;4.03;;;3.40;;
7334;SDS011;3708;42.632;23.378;2023-05-23T10:27:36;6.25;;;3.22;;
7334;SDS011;3708;42.632;23.378;2023-05-23T10:30:04;7.63;;;3.80;;
7334;SDS011;3708;42.632;23.378;2023-05-23T10:32:32;5.65;;;3.33;;
7334;SDS011;3708;42.632;23.378;2023-05-23T10:35:01;9.13;;;3.30;;
7334;SDS011;3708;42.632;23.378;2023-05-23T10:37:34;6.93;;;3.20;;
7334;SDS011;3708;42.632;23.378;2023-05-23T10:40:10;5.50;;;3.50;;
7334;SDS011;3708;42.632;23.378;2023-05-23T10:42:49;3.90;;;2.90;;
7334;SDS011;3708;42.632;23.378;2023-05-23T10:45:21;4.80;;;2.90;;
7334;SDS011;3708;42.632;23.378;2023-05-23T10:47:49;4.97;;;3.22;;
7334;SDS011;3708;42.632;23.378;2023-05-23T10:50:29;5.15;;;2.88;;
7334;SDS011;3708;42.632;23.378;2023-05-23T10:52:58;5.32;;;2.88;;
7334;SDS011;3708;42.632;23.378;2023-05-23T10:55:29;7.32;;;3.25;;
7334;SDS011;3708;42.632;23.378;2023-05-23T11:00:46;3.80;;;3.00;;
7334;SDS011;3708;42.632;23.378;2023-05-23T11:03:17;6.93;;;3.15;;
7334;SDS011;3708;42.632;23.378;2023-05-23T11:05:46;3.65;;;3.03;;
7334;SDS011;3708;42.632;23.378;2023-05-23T11:08:18;4.90;;;2.72;;
7334;SDS011;3708;42.632;23.378;2023-05-23T11:10:54;3.60;;;2.88;;
7334;SDS011;3708;42.632;23.378;2023-05-23T11:16:25;6.53;;;2.78;;
7334;SDS011;3708;42.632;23.378;2023-05-23T11:21:51;4.15;;;2.60;;
7334;SDS011;3708;42.632;23.378;2023-05-23T11:24:19;5.13;;;2.97;;
7334;SDS011;3708;42.632;23.378;2023-05-23T11:26:52;6.05;;;2.83;;
7334;SDS011;3708;42.632;23.378;2023-05-23T11:29:24;4.15;;;2.75;;
7334;SDS011;3708;42.632;23.378;2023-05-23T11:31:52;4.00;;;2.70;;
7334;SDS011;3708;42.632;23.378;2023-05-23T11:34:19;5.20;;;3.13;;
7334;SDS011;3708;42.632;23.378;2023-05-23T11:36:46;2.97;;;2.65;;
7334;SDS011;3708;42.632;23.378;2023-05-23T11:39:18;5.18;;;2.85;;
7334;SDS011;3708;42.632;23.378;2023-05-23T11:41:49;6.53;;;3.10;;
7334;SDS011;3708;42.632;23.378;2023-05-23T11:44:25;3.85;;;2.78;;
7334;SDS011;3708;42.632;23.378;2023-05-23T11:46:58;3.63;;;2.80;;
7334;SDS011;3708;42.632;23.378;2023-05-23T11:49:27;4.97;;;2.80;;
7334;SDS011;3708;42.632;23.378;2023-05-23T11:51:54;6.80;;;3.10;;
7334;SDS011;3708;42.632;23.378;2023-05-23T11:54:21;4.25;;;2.83;;
7334;SDS011;3708;42.632;23.378;2023-05-23T11:56:49;4.07;;;2.85;;
7334;SDS011;3708;42.632;23.378;2023-05-23T11:59:16;3.42;;;2.65;;
7334;SDS011;3708;42.632;23.378;2023-05-23T12:01:44;5.35;;;2.95;;
7334;SDS011;3708;42.632;23.378;2023-05-23T12:04:11;4.47;;;3.00;;
7334;SDS011;3708;42.632;23.378;2023-05-23T12:06:38;5.45;;;2.97;;
7334;SDS011;3708;42.632;23.378;2023-05-23T12:09:06;3.22;;;2.85;;
7334;SDS011;3708;42.632;23.378;2023-05-23T12:11:33;5.90;;;2.95;;
7334;SDS011;3708;42.632;23.378;2023-05-23T12:14:00;6.00;;;3.00;;
7334;SDS011;3708;42.632;23.378;2023-05-23T12:16:30;7.95;;;3.13;;
7334;SDS011;3708;42.632;23.378;2023-05-23T12:18:59;6.30;;;3.78;;
7334;SDS011;3708;42.632;23.378;2023-05-23T12:21:31;7.45;;;3.33;;
7334;SDS011;3708;42.632;23.378;2023-05-23T12:24:11;4.63;;;2.65;;
7334;SDS011;3708;42.632;23.378;2023-05-23T12:26:49;4.75;;;3.00;;
7334;SDS011;3708;42.632;23.378;2023-05-23T12:29:17;7.15;;;3.00;;
7334;SDS011;3708;42.632;23.378;2023-05-23T12:31:49;4.43;;;3.10;;
7334;SDS011;3708;42.632;23.378;2023-05-23T12:34:18;17.30;;;3.28;;
7334;SDS011;3708;42.632;23.378;2023-05-23T12:36:46;4.75;;;3.42;;
7334;SDS011;3708;42.632;23.378;2023-05-23T12:39:14;3.92;;;2.75;;
7334;SDS011;3708;42.632;23.378;2023-05-23T12:41:41;7.03;;;3.00;;
7334;SDS011;3708;42.632;23.378;2023-05-23T12:44:09;3.53;;;3.08;;
7334;SDS011;3708;42.632;23.378;2023-05-23T12:46:40;5.20;;;3.35;;
7334;SDS011;3708;42.632;23.378;2023-05-23T12:49:07;8.50;;;4.30;;
7334;SDS011;3708;42.632;23.378;2023-05-23T12:51:35;5.60;;;4.30;;
7334;SDS011;3708;42.632;23.378;2023-05-23T12:54:02;5.47;;;3.33;;
7334;SDS011;3708;42.632;23.378;2023-05-23T12:56:29;3.70;;;3.00;;
7334;SDS011;3708;42.632;23.378;2023-05-23T12:58:56;7.07;;;3.08;;
7334;SDS011;3708;42.632;23.378;2023-05-23T13:01:23;6.72;;;2.97;;
7334;SDS011;3708;42.632;23.378;2023-05-23T13:03:50;8.75;;;2.80;;
7334;SDS011;3708;42.632;23.378;2023-05-23T13:06:17;4.00;;;2.90;;
7334;SDS011;3708;42.632;23.378;2023-05-23T13:08:45;5.20;;;3.65;;
7334;SDS011;3708;42.632;23.378;2023-05-23T13:11:12;3.55;;;2.90;;
7334;SDS011;3708;42.632;23.378;2023-05-23T13:13:39;4.68;;;3.33;;
7334;SDS011;3708;42.632;23.378;2023-05-23T13:16:07;4.20;;;2.90;;
7334;SDS011;3708;42.632;23.378;2023-05-23T13:18:34;4.50;;;3.22;;
7334;SDS011;3708;42.632;23.378;2023-05-23T13:21:01;3.53;;;3.10;;
7334;SDS011;3708;42.632;23.378;2023-05-23T13:23:28;4.60;;;3.47;;
7334;SDS011;3708;42.632;23.378;2023-05-23T13:25:56;5.95;;;3.20;;
7334;SDS011;3708;42.632;23.378;2023-05-23T13:28:23;4.38;;;3.08;;
7334;SDS011;3708;42.632;23.378;2023-05-23T13:30:50;4.57;;;3.28;;
7334;SDS011;3708;42.632;23.378;2023-05-23T13:33:17;6.95;;;3.65;;
7334;SDS011;3708;42.632;23.378;2023-05-23T13:35:43;3.75;;;3.05;;
7334;SDS011;3708;42.632;23.378;2023-05-23T13:38:13;6.63;;;4.15;;
7334;SDS011;3708;42.632;23.378;2023-05-23T13:40:40;4.93;;;3.40;;
7334;SDS011;3708;42.632;23.378;2023-05-23T13:43:08;11.13;;;3.28;;
7334;SDS011;3708;42.632;23.378;2023-05-23T13:45:35;4.03;;;3.10;;
7334;SDS011;3708;42.632;23.378;2023-05-23T13:48:02;5.28;;;2.90;;
7334;SDS011;3708;42.632;23.378;2023-05-23T13:50:29;3.67;;;2.70;;
7334;SDS011;3708;42.632;23.378;2023-05-23T13:52:56;6.50;;;3.28;;
7334;SDS011;3708;42.632;23.378;2023-05-23T13:55:22;5.65;;;3.40;;
7334;SDS011;3708;42.632;23.378;2023-05-23T13:57:49;7.60;;;3.55;;
7334;SDS011;3708;42.632;23.378;2023-05-23T14:00:18;5.95;;;3.08;;
7334;SDS011;3708;42.632;23.378;2023-05-23T14:02:45;7.13;;;3.35;;
7334;SDS011;3708;42.632;23.378;2023-05-23T14:05:12;3.75;;;3.08;;
7334;SDS011;3708;42.632;23.378;2023-05-23T14:07:39;3.95;;;3.08;;
7334;SDS011;3708;42.632;23.378;2023-05-23T14:10:11;3.10;;;2.70;;
7334;SDS011;3708;42.632;23.378;2023-05-23T14:12:38;5.05;;;2.63;;
7334;SDS011;3708;42.632;23.378;2023-05-23T14:15:05;7.05;;;3.10;;
7334;SDS011;3708;42.632;23.378;2023-05-23T14:17:34;5.47;;;3.30;;
7334;SDS011;3708;42.632;23.378;2023-05-23T14:20:01;4.43;;;3.17;;
7334;SDS011;3708;42.632;23.378;2023-05-23T14:22:28;5.82;;;2.70;;
7334;SDS011;3708;42.632;23.378;2023-05-23T14:24:55;4.47;;;2.95;;
7334;SDS011;3708;42.632;23.378;2023-05-23T14:27:22;3.42;;;2.67;;
7334;SDS011;3708;42.632;23.378;2023-05-23T14:29:49;5.15;;;2.78;;
7334;SDS011;3708;42.632;23.378;2023-05-23T14:32:16;4.70;;;2.88;;
7334;SDS011;3708;42.632;23.378;2023-05-23T14:34:44;6.97;;;3.25;;
7334;SDS011;3708;42.632;23.378;2023-05-23T14:37:11;3.72;;;3.28;;
7334;SDS011;3708;42.632;23.378;2023-05-23T14:39:38;4.60;;;3.08;;
7334;SDS011;3708;42.632;23.378;2023-05-23T14:42:05;4.68;;;2.97;;
7334;SDS011;3708;42.632;23.378;2023-05-23T14:44:34;5.03;;;3.17;;
7334;SDS011;3708;42.632;23.378;2023-05-23T14:47:01;7.65;;;3.47;;
7334;SDS011;3708;42.632;23.378;2023-05-23T14:49:28;4.82;;;2.80;;
7334;SDS011;3708;42.632;23.378;2023-05-23T14:51:58;3.92;;;3.00;;
7334;SDS011;3708;42.632;23.378;2023-05-23T14:54:28;5.38;;;3.03;;
7334;SDS011;3708;42.632;23.378;2023-05-23T14:56:55;6.30;;;3.15;;
7334;SDS011;3708;42.632;23.378;2023-05-23T14:59:22;5.20;;;3.10;;
7334;SDS011;3708;42.632;23.378;2023-05-23T15:01:48;6.53;;;3.78;;
7334;SDS011;3708;42.632;23.378;2023-05-23T15:04:15;5.13;;;2.92;;
7334;SDS011;3708;42.632;23.378;2023-05-23T15:06:42;6.28;;;3.20;;
7334;SDS011;3708;42.632;23.378;2023-05-23T15:09:12;5.72;;;3.65;;
7334;SDS011;3708;42.632;23.378;2023-05-23T15:11:39;6.57;;;2.95;;
7334;SDS011;3708;42.632;23.378;2023-05-23T15:14:08;3.95;;;3.20;;
7334;SDS011;3708;42.632;23.378;2023-05-23T15:16:35;6.10;;;3.67;;